Terminal Aerodrome Forecast
Issued by NWS

Current Version | Previous Version | Text Only | Print | Product List | Glossary On
Versions: 1 2 3 4 5 6 7 8 9 10 11 12 13 14 15 16
000
FTUS44 KLZK 301142
TAFADF
TAF
KADF 301142Z 3012/0112 16009G16KT P6SM SCT015 BKN060
      TEMPO 3012/3015 BKN015
     FM301500 20007KT P6SM BKN025
     FM301900 22007KT P6SM SCT035 BKN060
     FM010000 VRB03KT P6SM SCT060 BKN250=

USA.gov is the U.S. government's official web portal to all federal, state and local government web resources and services.